Terminal Aerodrome Forecast
Issued by NWS

Home | Current Version | Previous Version | Text Only | Print | Product List | Glossary On
Versions: 1 2 3 4 5 6 7 8 9 10 11 12 13 14
000
FTUS45 KLKN 260539
TAFWMC
TAF
KWMC 260539Z 2606/2706 20005KT P6SM BKN050
     FM261100 19009KT P6SM -SHRA OVC025
     FM262000 26028G38KT P6SM VCTS BKN050CB
     FM270200 27009KT P6SM BKN060=

USA.gov is the U.S. government's official web portal to all federal, state and local government web resources and services.